Time;durP1;ratioP1;P1;durP2;ratioP2;P2;SDS_P1;SDS_P2;PMS_P1;PMS_P2;Temp;Humidity;BMP_temperature;BMP_pressure;BME280_temperature;BME280_humidity;BME280_pressure;Samples;Min_cycle;Max_cycle;Signal;HPM_P1;HPM_P2
2024/01/20 00:01:25;;;;;;;12.60;8.13;;;9.40;77.80;;;;;;6211514;23;19989;-83
2024/01/20 00:03:51;;;;;;;10.90;7.93;;;9.60;77.90;;;;;;6161476;23;19993;-82
2024/01/20 00:06:20;;;;;;;11.30;8.65;;;9.50;77.80;;;;;;6213002;23;19991;-83
2024/01/20 00:08:46;;;;;;;12.75;8.63;;;9.50;77.80;;;;;;6187114;23;20009;-83
2024/01/20 00:11:15;;;;;;;12.68;9.10;;;9.40;77.80;;;;;;6213070;23;20008;-82
2024/01/20 00:13:45;;;;;;;12.18;8.80;;;9.30;77.70;;;;;;6212876;23;20001;-84
2024/01/20 00:16:12;;;;;;;13.50;8.70;;;9.50;77.80;;;;;;6212913;23;19996;-81
2024/01/20 00:18:38;;;;;;;12.35;8.60;;;9.30;77.70;;;;;;6187356;23;20016;-82
2024/01/20 00:21:05;;;;;;;12.65;9.15;;;9.30;77.70;;;;;;6187571;23;20160;-83
2024/01/20 00:23:31;;;;;;;12.75;8.80;;;9.40;77.70;;;;;;6187453;23;19997;-84
2024/01/20 00:25:59;;;;;;;12.23;8.43;;;9.40;77.90;;;;;;6186698;23;19986;-82
2024/01/20 00:28:25;;;;;;;12.32;8.57;;;9.40;77.70;;;;;;6187489;23;19993;-81
2024/01/20 00:30:51;;;;;;;13.52;9.35;;;9.50;77.90;;;;;;6188938;23;20052;-82
2024/01/20 00:33:18;;;;;;;12.85;9.10;;;9.40;77.80;;;;;;6188696;23;19993;-81
2024/01/20 00:35:45;;;;;;;12.80;8.70;;;9.40;77.80;;;;;;6189212;23;20028;-82
2024/01/20 00:38:13;;;;;;;12.80;9.35;;;9.00;77.60;;;;;;6164331;23;19992;-81
2024/01/20 00:40:41;;;;;;;11.98;8.38;;;9.30;77.80;;;;;;6164316;23;19993;-81
2024/01/20 00:43:08;;;;;;;14.10;9.23;;;9.40;77.80;;;;;;6188763;23;19996;-81
2024/01/20 00:45:36;;;;;;;12.57;8.23;;;9.60;77.90;;;;;;6188714;23;19993;-82
2024/01/20 00:48:03;;;;;;;12.38;9.10;;;9.40;77.80;;;;;;6189436;23;19989;-81
2024/01/20 00:50:30;;;;;;;12.65;8.68;;;9.40;77.80;;;;;;6164010;23;20009;-82
2024/01/20 00:52:57;;;;;;;13.25;8.57;;;9.20;77.70;;;;;;6214356;23;19985;-81
2024/01/20 00:55:23;;;;;;;11.85;8.60;;;9.40;77.90;;;;;;6186804;23;20004;-83
2024/01/20 00:57:50;;;;;;;12.32;8.60;;;9.40;77.90;;;;;;6188163;23;19986;-81
2024/01/20 01:00:16;;;;;;;13.10;9.02;;;9.50;77.90;;;;;;6188075;23;20013;-81
2024/01/20 01:02:42;;;;;;;12.98;8.63;;;9.40;77.90;;;;;;6187755;23;19991;-84
2024/01/20 01:05:09;;;;;;;13.27;9.32;;;9.40;77.90;;;;;;6212758;23;20000;-82
2024/01/20 01:07:36;;;;;;;13.13;9.00;;;9.30;77.80;;;;;;6188060;23;20013;-82
2024/01/20 01:10:06;;;;;;;13.98;9.50;;;9.40;77.90;;;;;;6214252;23;20024;-82
2024/01/20 01:12:33;;;;;;;13.20;9.02;;;9.40;77.80;;;;;;6164371;23;20000;-83
2024/01/20 01:15:01;;;;;;;11.68;8.77;;;9.40;77.80;;;;;;6212667;23;20005;-82
2024/01/20 01:17:27;;;;;;;13.32;9.18;;;9.30;77.90;;;;;;6164295;23;19989;-84
2024/01/20 01:19:57;;;;;;;13.15;8.82;;;9.40;77.90;;;;;;6188865;23;19989;-81
2024/01/20 01:22:23;;;;;;;12.60;8.82;;;9.40;77.90;;;;;;6188538;23;20032;-82
2024/01/20 01:24:49;;;;;;;14.07;9.52;;;9.50;78.00;;;;;;6214089;23;19989;-83
2024/01/20 01:27:18;;;;;;;12.65;8.80;;;9.60;78.00;;;;;;6213940;23;20017;-82
2024/01/20 01:29:46;;;;;;;13.38;9.30;;;9.50;78.00;;;;;;6213398;23;20016;-82
2024/01/20 01:32:15;;;;;;;14.90;10.00;;;9.50;78.00;;;;;;6214009;23;19996;-83
2024/01/20 01:34:44;;;;;;;11.40;8.75;;;9.40;77.90;;;;;;6212804;23;20027;-83
2024/01/20 01:37:13;;;;;;;13.23;9.25;;;9.40;78.00;;;;;;6189653;23;19994;-83
2024/01/20 01:39:42;;;;;;;12.82;9.75;;;9.60;78.00;;;;;;6188927;23;20021;-82
2024/01/20 01:42:10;;;;;;;14.57;9.07;;;9.40;77.90;;;;;;6187909;23;19989;-81
2024/01/20 01:44:38;;;;;;;13.18;9.20;;;9.50;78.00;;;;;;6163927;23;20037;-81
2024/01/20 01:47:04;;;;;;;13.02;9.50;;;9.50;77.90;;;;;;6140300;23;20009;-82
2024/01/20 01:49:32;;;;;;;13.68;9.38;;;9.60;78.00;;;;;;6188461;23;19989;-81
2024/01/20 01:51:59;;;;;;;14.27;9.75;;;9.30;78.40;;;;;;6187037;23;20016;-81
2024/01/20 01:54:26;;;;;;;13.65;9.95;;;9.40;78.00;;;;;;6163710;23;20017;-82
2024/01/20 01:56:56;;;;;;;13.77;9.52;;;9.40;77.90;;;;;;6188640;23;20032;-82
2024/01/20 01:59:23;;;;;;;13.68;9.27;;;9.50;78.00;;;;;;6188165;23;20016;-81
2024/01/20 02:01:49;;;;;;;13.48;9.45;;;9.40;78.00;;;;;;6187880;23;19989;-83
2024/01/20 02:04:17;;;;;;;12.82;9.25;;;9.30;77.90;;;;;;6213010;23;20005;-82
2024/01/20 02:06:45;;;;;;;12.65;9.18;;;9.50;78.00;;;;;;6185952;23;19991;-82
2024/01/20 02:09:13;;;;;;;14.13;9.68;;;9.30;77.90;;;;;;6213981;23;20013;-81
2024/01/20 02:11:40;;;;;;;13.95;9.23;;;9.20;77.90;;;;;;6187071;23;19985;-84
2024/01/20 02:14:07;;;;;;;14.05;9.43;;;9.30;77.80;;;;;;6187937;23;20009;-82
2024/01/20 02:16:33;;;;;;;15.50;10.10;;;9.40;78.00;;;;;;6188656;23;19989;-82
2024/01/20 02:19:04;;;;;;;14.82;9.77;;;9.30;77.90;;;;;;6139211;23;20013;-82
2024/01/20 02:21:32;;;;;;;13.02;9.65;;;9.20;77.90;;;;;;6162959;23;20036;-81
2024/01/20 02:24:02;;;;;;;13.50;9.50;;;9.30;77.90;;;;;;6213428;23;20016;-81
2024/01/20 02:26:29;;;;;;;14.00;9.95;;;9.40;78.00;;;;;;6188230;23;19996;-81
2024/01/20 02:28:56;;;;;;;13.82;9.88;;;9.50;78.00;;;;;;6188225;23;20012;-83
2024/01/20 02:31:30;;;;;;;;;;;9.40;78.00;;;;;;6214229;23;20017;-81
2024/01/20 02:34:00;;;;;;;13.98;9.68;;;9.30;77.90;;;;;;6213560;23;19995;-82
2024/01/20 02:36:26;;;;;;;13.85;9.52;;;9.60;78.10;;;;;;6188171;23;20013;-81
2024/01/20 02:38:54;;;;;;;13.05;9.02;;;9.30;77.90;;;;;;6186624;23;19989;-83
2024/01/20 02:41:23;;;;;;;15.90;10.02;;;9.30;77.90;;;;;;6187420;23;19985;-82
2024/01/20 02:43:50;;;;;;;13.73;9.07;;;9.40;78.00;;;;;;6185936;23;19997;-81
2024/01/20 02:46:17;;;;;;;13.23;8.90;;;9.40;78.00;;;;;;6163684;23;19993;-83
2024/01/20 02:48:47;;;;;;;13.50;9.38;;;9.40;78.00;;;;;;6213308;23;20028;-81
2024/01/20 02:51:13;;;;;;;13.10;9.27;;;9.40;78.00;;;;;;6163201;23;19989;-81
2024/01/20 02:53:41;;;;;;;13.15;9.15;;;9.30;78.00;;;;;;6210896;23;20012;-81
2024/01/20 02:56:07;;;;;;;13.82;9.65;;;9.40;78.00;;;;;;6163155;23;20048;-81
2024/01/20 02:58:33;;;;;;;12.98;8.88;;;9.40;78.00;;;;;;6187611;23;20068;-84
2024/01/20 03:01:02;;;;;;;13.85;9.15;;;10.30;78.50;;;;;;6187676;23;19989;-82
2024/01/20 03:03:28;;;;;;;13.25;9.07;;;9.40;78.00;;;;;;6213141;23;20005;-81
2024/01/20 03:05:56;;;;;;;13.65;9.20;;;9.10;77.90;;;;;;6188292;23;19993;-82
2024/01/20 03:08:24;;;;;;;13.18;9.25;;;9.60;78.10;;;;;;6188620;23;19993;-80
2024/01/20 03:10:53;;;;;;;13.27;9.05;;;9.30;78.00;;;;;;6213466;23;20012;-82
2024/01/20 03:13:21;;;;;;;13.27;9.50;;;9.30;77.90;;;;;;6187196;23;19993;-82
2024/01/20 03:15:47;;;;;;;13.60;9.23;;;9.20;77.90;;;;;;6163659;23;20028;-82
2024/01/20 03:18:14;;;;;;;13.38;8.90;;;9.40;77.90;;;;;;6162721;23;19989;-82
2024/01/20 03:20:41;;;;;;;14.07;9.18;;;9.30;78.00;;;;;;6187479;23;19993;-82
2024/01/20 03:23:08;;;;;;;12.25;8.73;;;9.40;78.00;;;;;;6213149;23;20048;-82
2024/01/20 03:25:38;;;;;;;14.00;9.45;;;9.30;78.00;;;;;;6213075;23;20013;-80
2024/01/20 03:28:05;;;;;;;12.73;8.70;;;9.40;78.00;;;;;;6163219;23;19993;-83
2024/01/20 03:30:34;;;;;;;12.82;8.55;;;9.30;77.90;;;;;;6213408;23;19989;-80
2024/01/20 03:33:01;;;;;;;13.07;8.55;;;9.30;77.90;;;;;;6163650;23;19990;-81
2024/01/20 03:35:28;;;;;;;13.18;9.20;;;9.30;78.00;;;;;;6187701;23;19997;-83
2024/01/20 03:37:56;;;;;;;12.57;8.90;;;9.40;77.90;;;;;;6187715;23;19989;-81
2024/01/20 03:40:22;;;;;;;13.20;8.85;;;9.40;78.00;;;;;;6162614;23;20009;-81
2024/01/20 03:42:51;;;;;;;12.55;8.70;;;9.30;77.90;;;;;;6165993;23;20025;-81
2024/01/20 03:45:21;;;;;;;12.13;8.63;;;9.30;77.90;;;;;;6211964;23;20009;-82
2024/01/20 03:47:47;;;;;;;13.95;9.10;;;9.30;77.90;;;;;;6186978;23;19993;-83
2024/01/20 03:50:15;;;;;;;12.90;9.25;;;9.30;77.90;;;;;;6162783;23;20054;-83
2024/01/20 03:52:42;;;;;;;13.13;9.05;;;10.00;78.30;;;;;;6187387;23;19989;-81
2024/01/20 03:55:10;;;;;;;12.60;8.63;;;9.30;77.90;;;;;;6186710;23;20001;-82
2024/01/20 03:57:36;;;;;;;12.38;8.10;;;9.30;77.90;;;;;;6163454;23;19993;-81
2024/01/20 04:00:04;;;;;;;13.07;9.10;;;9.50;78.00;;;;;;6186675;23;20012;-82
2024/01/20 04:02:32;;;;;;;12.93;8.98;;;9.30;77.90;;;;;;6187062;23;19985;-83
2024/01/20 04:04:58;;;;;;;12.43;8.70;;;9.30;77.90;;;;;;6189053;23;19993;-81
2024/01/20 04:07:25;;;;;;;12.38;8.30;;;9.30;77.90;;;;;;6189467;23;19985;-83
2024/01/20 04:09:51;;;;;;;13.35;9.20;;;9.30;77.90;;;;;;6188396;23;20012;-81
2024/01/20 04:12:19;;;;;;;12.40;8.98;;;9.40;78.00;;;;;;6214105;23;20001;-82
2024/01/20 04:14:45;;;;;;;12.93;8.57;;;9.40;77.90;;;;;;6189037;23;20003;-82
2024/01/20 04:17:12;;;;;;;12.80;8.65;;;9.30;77.90;;;;;;6189038;23;19992;-82
2024/01/20 04:19:38;;;;;;;12.60;9.10;;;9.30;77.80;;;;;;6187173;23;19993;-83
2024/01/20 04:22:04;;;;;;;13.98;8.93;;;9.60;78.00;;;;;;6188461;23;19996;-81
2024/01/20 04:24:31;;;;;;;12.57;8.30;;;9.30;77.80;;;;;;6188092;23;20019;-83
2024/01/20 04:27:00;;;;;;;12.38;8.48;;;9.30;77.90;;;;;;6164732;23;20005;-82
2024/01/20 04:29:26;;;;;;;12.30;8.73;;;9.30;77.90;;;;;;6164823;23;19997;-82
2024/01/20 04:31:53;;;;;;;12.40;7.72;;;9.30;77.90;;;;;;6188772;23;19990;-83
2024/01/20 04:34:20;;;;;;;13.18;9.35;;;9.30;77.90;;;;;;6164022;23;20024;-83
2024/01/20 04:36:49;;;;;;;12.13;8.60;;;9.30;77.80;;;;;;6189382;23;19985;-84
2024/01/20 04:39:20;;;;;;;13.15;8.55;;;9.30;77.90;;;;;;6141795;23;20060;-83
2024/01/20 04:41:46;;;;;;;13.15;8.93;;;9.30;77.90;;;;;;6188265;23;19985;-81
2024/01/20 04:44:13;;;;;;;13.10;8.70;;;9.30;77.90;;;;;;6189522;23;20000;-82
2024/01/20 04:46:40;;;;;;;12.32;8.48;;;9.30;77.90;;;;;;6213987;23;19986;-81
2024/01/20 04:49:09;;;;;;;12.63;8.93;;;8.10;77.20;;;;;;6188242;23;20008;-81
2024/01/20 04:51:35;;;;;;;12.43;8.52;;;9.30;77.90;;;;;;6188399;23;19997;-81
2024/01/20 04:54:03;;;;;;;12.80;8.38;;;9.50;78.10;;;;;;6214188;23;20004;-80
2024/01/20 04:56:29;;;;;;;14.25;9.27;;;9.20;77.90;;;;;;6188239;23;20013;-81
2024/01/20 04:58:56;;;;;;;11.90;8.35;;;9.40;78.00;;;;;;6163086;23;19993;-82
2024/01/20 05:01:27;;;;;;;12.07;8.15;;;9.30;78.00;;;;;;6214219;23;20096;-82
2024/01/20 05:03:58;;;;;;;11.35;8.23;;;9.20;77.90;;;;;;6212780;23;19992;-82
2024/01/20 05:06:25;;;;;;;13.73;8.98;;;9.30;78.00;;;;;;6188189;23;19989;-82
2024/01/20 05:08:51;;;;;;;12.13;8.55;;;9.30;77.90;;;;;;6188815;23;19986;-81
2024/01/20 05:11:19;;;;;;;12.25;8.43;;;9.30;77.90;;;;;;6214026;23;20064;-82
2024/01/20 05:13:45;;;;;;;12.57;8.63;;;9.20;77.80;;;;;;6187439;23;19985;-82
2024/01/20 05:16:13;;;;;;;13.10;8.77;;;9.30;77.90;;;;;;6212763;23;19993;-82
2024/01/20 05:18:41;;;;;;;12.40;8.50;;;9.30;77.90;;;;;;6188337;23;20005;-81
2024/01/20 05:21:13;;;;;;;13.73;8.82;;;9.20;77.90;;;;;;6188565;23;20055;-82
2024/01/20 05:23:40;;;;;;;12.60;8.80;;;9.20;77.90;;;;;;6164380;23;20041;-80
2024/01/20 05:26:06;;;;;;;12.43;8.38;;;9.50;78.00;;;;;;6188656;23;20032;-84
2024/01/20 05:28:32;;;;;;;12.00;8.18;;;9.30;77.90;;;;;;6188336;23;20012;-81
2024/01/20 05:31:00;;;;;;;12.57;8.60;;;9.20;77.90;;;;;;6188871;23;19989;-81
2024/01/20 05:33:26;;;;;;;11.85;8.10;;;9.30;77.90;;;;;;6188012;23;19985;-81
2024/01/20 05:35:56;;;;;;;11.23;7.70;;;9.30;78.00;;;;;;6213624;23;20021;-82
2024/01/20 05:38:25;;;;;;;12.02;8.43;;;9.30;78.00;;;;;;6214289;23;19989;-81
2024/01/20 05:40:52;;;;;;;14.00;9.00;;;9.20;77.90;;;;;;6213793;23;20013;-81
2024/01/20 05:43:18;;;;;;;12.85;9.00;;;9.20;77.90;;;;;;6184275;23;20017;-78
2024/01/20 05:45:50;;;;;;;12.25;8.05;;;9.30;78.00;;;;;;6184353;23;20005;-80
2024/01/20 05:48:19;;;;;;;12.85;8.60;;;9.40;78.00;;;;;;6185729;23;19985;-80
2024/01/20 05:50:44;;;;;;;11.65;8.18;;;9.20;77.90;;;;;;6175308;23;20012;-79
2024/01/20 05:53:10;;;;;;;12.15;8.60;;;9.50;78.10;;;;;;6175072;23;20088;-79
2024/01/20 05:55:35;;;;;;;12.30;8.00;;;9.30;78.00;;;;;;6176176;23;20005;-79
2024/01/20 05:58:01;;;;;;;12.88;8.45;;;9.40;78.00;;;;;;6174400;23;20084;-80
2024/01/20 06:00:26;;;;;;;12.32;8.27;;;9.40;78.00;;;;;;6203358;23;19990;-79
2024/01/20 06:02:56;;;;;;;12.02;8.38;;;9.30;78.00;;;;;;6203358;23;20001;-79
2024/01/20 06:05:22;;;;;;;12.45;8.50;;;9.30;78.00;;;;;;6178184;23;20028;-79
2024/01/20 06:07:47;;;;;;;12.70;8.52;;;9.80;78.30;;;;;;6178460;23;20069;-79
2024/01/20 06:10:13;;;;;;;13.65;8.85;;;9.30;78.00;;;;;;6177433;23;20024;-80
2024/01/20 06:12:39;;;;;;;12.95;8.25;;;9.30;78.00;;;;;;6199571;23;19998;-79
2024/01/20 06:15:05;;;;;;;12.10;8.07;;;9.30;78.00;;;;;;6175314;23;20004;-79
2024/01/20 06:17:30;;;;;;;12.90;8.80;;;9.10;77.90;;;;;;6172879;23;20305;-78
2024/01/20 06:19:56;;;;;;;12.65;8.60;;;9.30;78.00;;;;;;6174405;23;19997;-79
2024/01/20 06:22:22;;;;;;;12.77;8.82;;;9.30;77.90;;;;;;6173086;23;20396;-81
2024/01/20 06:24:47;;;;;;;12.48;8.50;;;9.30;78.00;;;;;;6179803;23;20009;-81
2024/01/20 06:27:13;;;;;;;13.02;8.77;;;9.30;78.00;;;;;;6179725;23;20008;-79
2024/01/20 06:29:44;;;;;;;12.05;8.00;;;9.20;77.90;;;;;;6203602;23;20073;-80
2024/01/20 06:32:10;;;;;;;13.07;9.18;;;10.60;78.70;;;;;;6197320;23;20005;-79
2024/01/20 06:34:35;;;;;;;13.57;8.95;;;9.30;78.00;;;;;;6170624;23;20029;-79
2024/01/20 06:37:01;;;;;;;13.50;9.07;;;9.40;78.00;;;;;;6175892;23;19997;-80
2024/01/20 06:39:27;;;;;;;13.60;9.05;;;9.40;78.00;;;;;;6177797;23;20121;-80
2024/01/20 06:41:52;;;;;;;14.65;9.52;;;9.20;77.80;;;;;;6175661;23;20088;-81
2024/01/20 06:44:18;;;;;;;13.90;9.02;;;9.30;77.70;;;;;;6200188;23;20063;-80
2024/01/20 06:46:43;;;;;;;13.02;8.90;;;9.20;77.70;;;;;;6177200;23;20104;-79
2024/01/20 06:49:09;;;;;;;13.52;9.35;;;9.20;77.80;;;;;;6178381;23;19992;-79
2024/01/20 06:51:35;;;;;;;14.32;9.43;;;9.30;77.80;;;;;;6203587;23;20260;-78
2024/01/20 06:54:00;;;;;;;14.45;9.27;;;9.30;77.90;;;;;;6174833;23;20072;-80
2024/01/20 06:59:16;;;;;;;12.23;8.48;;;9.20;77.80;;;;;;6211655;23;20052;-83
2024/01/20 07:01:47;;;;;;;14.13;9.35;;;9.20;77.80;;;;;;6159770;23;20012;-82
2024/01/20 07:04:14;;;;;;;13.23;8.63;;;9.50;77.90;;;;;;6160502;23;20005;-81
2024/01/20 07:06:43;;;;;;;12.70;9.00;;;9.10;77.70;;;;;;6183594;23;20016;-84
2024/01/20 07:09:12;;;;;;;14.45;9.63;;;9.20;77.70;;;;;;6209136;23;20001;-81
2024/01/20 07:11:38;;;;;;;14.05;9.60;;;9.30;77.80;;;;;;6159770;23;20016;-81
2024/01/20 07:14:04;;;;;;;13.02;8.93;;;9.10;77.70;;;;;;6183978;23;20040;-82
2024/01/20 07:16:33;;;;;;;13.75;8.75;;;10.30;78.40;;;;;;6184055;23;20000;-83
2024/01/20 07:18:59;;;;;;;14.15;9.60;;;9.20;77.70;;;;;;6184698;23;20016;-83
2024/01/20 07:21:26;;;;;;;13.52;9.25;;;9.30;77.80;;;;;;6184319;23;20020;-82
2024/01/20 07:23:54;;;;;;;14.80;10.20;;;9.20;77.80;;;;;;6210172;23;20000;-79
2024/01/20 07:26:20;;;;;;;14.68;9.60;;;9.20;77.80;;;;;;6184186;23;20004;-81
2024/01/20 07:28:48;;;;;;;13.75;9.25;;;9.20;77.80;;;;;;6210140;23;20005;-81
2024/01/20 07:31:14;;;;;;;13.32;9.05;;;9.00;77.70;;;;;;6185257;23;20023;-82
2024/01/20 07:33:41;;;;;;;13.55;9.23;;;9.10;77.70;;;;;;6183906;23;20009;-81
2024/01/20 07:36:07;;;;;;;13.80;9.35;;;9.10;77.70;;;;;;6185587;23;20021;-81
2024/01/20 07:38:33;;;;;;;13.95;9.23;;;9.10;77.70;;;;;;6161367;23;20009;-81
2024/01/20 07:41:00;;;;;;;14.85;9.52;;;9.30;77.80;;;;;;6187998;23;20001;-82
2024/01/20 07:43:26;;;;;;;14.65;9.88;;;9.20;77.90;;;;;;6187132;23;19985;-82
2024/01/20 07:45:54;;;;;;;14.13;9.13;;;9.20;77.70;;;;;;6187603;23;20017;-82
2024/01/20 07:48:20;;;;;;;14.10;9.85;;;9.20;77.80;;;;;;6187934;23;19997;-82
2024/01/20 07:50:48;;;;;;;14.18;9.80;;;9.30;77.90;;;;;;6213280;23;20092;-81
2024/01/20 07:53:15;;;;;;;12.93;8.98;;;9.20;77.90;;;;;;6186998;23;19989;-82
2024/01/20 07:55:48;;;;;;;14.30;9.68;;;9.20;77.80;;;;;;6186574;23;20016;-81
2024/01/20 07:58:14;;;;;;;14.10;9.40;;;9.10;77.70;;;;;;6187588;23;20012;-81
2024/01/20 08:00:42;;;;;;;14.18;9.73;;;9.20;77.90;;;;;;6212145;23;19989;-80
2024/01/20 08:03:10;;;;;;;13.60;8.95;;;9.50;78.00;;;;;;6186153;23;20178;-82
2024/01/20 08:05:36;;;;;;;14.75;9.35;;;9.10;77.80;;;;;;6184703;23;20001;-80
2024/01/20 08:08:03;;;;;;;13.95;9.10;;;9.20;77.90;;;;;;6185473;23;20009;-81
2024/01/20 08:10:29;;;;;;;15.13;9.73;;;9.20;77.90;;;;;;6211570;23;20001;-82
2024/01/20 08:12:55;;;;;;;13.27;9.23;;;9.30;77.90;;;;;;6210380;23;20016;-81
2024/01/20 08:15:22;;;;;;;13.90;9.52;;;9.20;77.90;;;;;;6211064;23;20028;-80
2024/01/20 08:17:49;;;;;;;14.60;9.63;;;9.20;77.90;;;;;;6211162;23;20013;-82
2024/01/20 08:20:15;;;;;;;14.65;9.57;;;9.40;77.90;;;;;;6208718;23;20021;-80
2024/01/20 08:25:17;;;;;;;15.07;10.05;;;9.20;77.80;;;;;;6180639;23;20165;-82
2024/01/20 08:27:45;;;;;;;14.40;9.77;;;9.20;77.80;;;;;;6155170;23;19993;-81
2024/01/20 08:30:11;;;;;;;13.85;9.40;;;9.20;77.80;;;;;;6155908;23;20009;-80
2024/01/20 08:32:40;;;;;;;16.20;10.43;;;9.20;77.80;;;;;;6163561;23;20028;-82
2024/01/20 08:35:06;;;;;;;14.82;9.32;;;9.30;77.80;;;;;;6185427;23;20060;-82
2024/01/20 08:37:31;;;;;;;14.68;8.95;;;9.20;77.80;;;;;;6186103;23;19986;-81
2024/01/20 08:39:57;;;;;;;14.18;10.00;;;9.10;77.70;;;;;;6185974;23;20012;-81
2024/01/20 08:42:23;;;;;;;13.43;9.13;;;9.20;77.80;;;;;;6185776;23;20004;-82
2024/01/20 08:44:49;;;;;;;14.60;9.35;;;9.70;78.10;;;;;;6185994;23;20053;-81
2024/01/20 08:47:15;;;;;;;13.70;9.10;;;9.30;77.80;;;;;;6185284;23;20057;-82
2024/01/20 08:49:42;;;;;;;14.32;9.27;;;9.20;77.80;;;;;;6160045;23;19997;-79
2024/01/20 08:52:10;;;;;;;14.18;9.50;;;9.20;77.80;;;;;;6210716;23;20051;-80
2024/01/20 08:54:39;;;;;;;14.13;9.23;;;9.20;77.70;;;;;;6184264;23;19997;-82
2024/01/20 08:57:05;;;;;;;14.48;9.93;;;9.30;77.80;;;;;;6184787;23;19994;-82
2024/01/20 08:59:31;;;;;;;14.40;9.63;;;9.20;77.80;;;;;;6185221;23;20001;-81
2024/01/20 09:01:57;;;;;;;14.05;9.32;;;9.20;77.80;;;;;;6160465;23;19996;-81
2024/01/20 09:04:23;;;;;;;14.23;9.57;;;9.40;77.80;;;;;;6209858;23;20005;-81
2024/01/20 09:06:49;;;;;;;14.50;9.90;;;10.10;78.20;;;;;;6185403;23;19993;-81
2024/01/20 09:09:15;;;;;;;13.82;9.25;;;9.30;77.70;;;;;;6185008;23;20005;-81
2024/01/20 09:11:45;;;;;;;13.27;8.68;;;9.20;77.70;;;;;;6184591;23;19996;-82
2024/01/20 09:14:13;;;;;;;13.82;9.13;;;9.00;77.60;;;;;;6161261;23;20020;-81
2024/01/20 09:16:40;;;;;;;15.93;10.18;;;9.20;77.70;;;;;;6210400;23;20009;-81
2024/01/20 09:19:05;;;;;;;14.48;9.30;;;9.30;77.80;;;;;;6184964;23;19985;-80
2024/01/20 09:21:33;;;;;;;13.52;9.23;;;9.30;77.80;;;;;;6211094;23;20016;-80
2024/01/20 09:24:02;;;;;;;14.48;9.27;;;9.20;77.70;;;;;;6184721;23;20032;-80
2024/01/20 09:26:28;;;;;;;14.52;9.63;;;9.20;77.70;;;;;;6185744;23;20004;-81
2024/01/20 09:28:54;;;;;;;14.27;9.80;;;9.20;77.60;;;;;;6185665;23;20009;-80
2024/01/20 09:31:20;;;;;;;15.68;9.75;;;10.50;78.30;;;;;;6186160;23;20004;-81
2024/01/20 09:33:46;;;;;;;15.13;9.80;;;9.20;77.70;;;;;;6184940;23;20010;-81
2024/01/20 09:36:16;;;;;;;15.63;10.43;;;9.20;77.70;;;;;;6184817;23;20028;-81
2024/01/20 09:38:42;;;;;;;14.32;9.15;;;9.20;77.70;;;;;;6185502;23;19985;-81
2024/01/20 09:41:09;;;;;;;15.32;9.70;;;9.30;77.80;;;;;;6207579;23;20017;-79
2024/01/20 09:43:39;;;;;;;13.35;9.43;;;9.40;77.80;;;;;;6183695;23;19989;-82
2024/01/20 09:46:05;;;;;;;14.27;9.45;;;9.40;77.80;;;;;;6160432;23;20000;-81
2024/01/20 09:48:32;;;;;;;13.85;9.38;;;9.20;77.60;;;;;;6210799;23;20008;-81
2024/01/20 09:50:58;;;;;;;14.13;9.45;;;9.50;77.90;;;;;;6185228;23;20043;-81
2024/01/20 09:53:25;;;;;;;14.75;9.65;;;9.30;77.70;;;;;;6185035;23;20005;-80
2024/01/20 09:55:54;;;;;;;14.25;9.50;;;9.30;77.70;;;;;;6212233;23;20004;-80
2024/01/20 09:58:20;;;;;;;14.60;9.35;;;9.20;77.50;;;;;;6187124;23;19996;-82
2024/01/20 10:00:48;;;;;;;15.57;10.10;;;9.20;77.50;;;;;;6187108;23;20052;-81
2024/01/20 10:03:17;;;;;;;13.88;9.27;;;9.40;77.60;;;;;;6212207;23;20060;-81
2024/01/20 10:05:42;;;;;;;13.65;9.25;;;9.30;77.50;;;;;;6187120;23;20001;-81
2024/01/20 10:08:09;;;;;;;15.27;9.70;;;9.30;77.50;;;;;;6187252;23;19989;-81
2024/01/20 10:10:35;;;;;;;14.18;9.30;;;9.20;77.50;;;;;;6186222;23;19993;-82
2024/01/20 10:13:01;;;;;;;12.73;8.63;;;9.30;77.50;;;;;;6187418;23;20053;-80
2024/01/20 10:15:29;;;;;;;13.65;9.25;;;9.40;77.50;;;;;;6213015;23;20017;-82
2024/01/20 10:17:56;;;;;;;15.27;9.75;;;9.40;77.50;;;;;;6187801;23;20016;-81
2024/01/20 10:20:31;;;;;;;15.00;9.15;;;9.20;77.40;;;;;;6186919;23;19999;-81
2024/01/20 10:23:00;;;;;;;16.00;9.50;;;9.50;77.60;;;;;;6187112;23;19989;-81
2024/01/20 10:25:26;;;;;;;14.82;9.60;;;9.30;77.50;;;;;;6186626;23;20000;-81
2024/01/20 10:27:52;;;;;;;14.18;9.13;;;9.00;77.40;;;;;;6185306;23;20057;-78
2024/01/20 10:30:22;;;;;;;14.30;8.93;;;9.10;77.30;;;;;;6187079;23;19997;-80
2024/01/20 10:32:48;;;;;;;14.63;9.15;;;9.20;77.40;;;;;;6186907;23;20013;-82
2024/01/20 10:35:14;;;;;;;15.38;8.60;;;9.20;77.40;;;;;;6186557;23;19997;-81
2024/01/20 10:37:44;;;;;;;13.85;9.23;;;9.20;77.40;;;;;;6186486;23;19996;-81
2024/01/20 10:40:25;;;;;;;15.35;9.10;;;9.30;77.50;;;;;;6163083;23;19993;-84
2024/01/20 10:43:00;;;;;;;14.23;9.43;;;9.30;77.40;;;;;;6187279;23;19994;-82
2024/01/20 10:53:20;;;;;;;24.98;12.00;;;9.20;76.30;;;;;;6138795;23;20025;-78
2024/01/20 10:55:57;;;;;;;24.42;11.95;;;9.20;76.20;;;;;;6207268;23;20024;-79
2024/01/20 11:01:40;;;;;;;23.77;11.68;;;9.20;76.40;;;;;;6201211;23;20047;-80
2024/01/20 11:04:54;;;;;;;;;;;;;;;;;;;;;
2024/01/20 11:07:27;;;;;;;21.17;10.15;;;9.30;77.00;;;;;;6206080;23;19997;-80
2024/01/20 11:10:03;;;;;;;20.27;10.55;;;9.40;77.10;;;;;;6184664;23;20028;-79
2024/01/20 11:12:31;;;;;;;19.80;10.70;;;9.40;77.20;;;;;;6173322;23;20021;-78
2024/01/20 11:15:11;;;;;;;16.70;9.40;;;9.40;77.20;;;;;;6148117;23;20006;-79
2024/01/20 11:17:37;;;;;;;20.60;10.52;;;9.40;77.00;;;;;;6139819;23;20021;-80
2024/01/20 11:20:07;;;;;;;18.65;10.27;;;9.50;76.80;;;;;;6134863;23;20008;-79
2024/01/20 11:22:35;;;;;;;17.50;9.85;;;10.00;76.90;;;;;;6136579;23;20005;-78
2024/01/20 11:25:10;;;;;;;15.82;10.18;;;9.60;76.60;;;;;;6138801;23;20006;-78
2024/01/20 11:27:55;;;;;;;17.13;9.55;;;9.60;76.40;;;;;;6137903;23;20009;-82
2024/01/20 11:30:37;;;;;;;21.08;10.18;;;9.70;76.30;;;;;;6156808;23;19997;-80
2024/01/20 11:33:04;;;;;;;20.83;11.43;;;9.70;76.20;;;;;;6145361;23;20053;-78
2024/01/20 11:35:37;;;;;;;21.70;10.63;;;9.80;75.90;;;;;;6139775;23;20016;-80
2024/01/20 11:38:04;;;;;;;16.88;10.18;;;9.50;75.60;;;;;;6150651;23;19990;-81
2024/01/20 11:40:32;;;;;;;16.85;9.32;;;10.10;75.80;;;;;;6153176;23;19994;-80
2024/01/20 11:43:11;;;;;;;20.67;9.73;;;9.80;75.70;;;;;;6144558;23;20055;-80
2024/01/20 11:45:40;;;;;;;15.73;9.80;;;9.90;75.50;;;;;;6145194;23;20036;-81
2024/01/20 11:48:08;;;;;;;17.50;9.90;;;9.90;75.20;;;;;;6145873;23;20033;-79
2024/01/20 11:50:41;;;;;;;17.05;9.18;;;9.90;75.00;;;;;;6181759;23;20005;-81
2024/01/20 11:53:09;;;;;;;18.40;8.82;;;9.90;75.30;;;;;;6181219;23;19994;-80
2024/01/20 11:55:37;;;;;;;16.58;9.45;;;9.90;75.30;;;;;;6157499;23;20001;-81
2024/01/20 11:58:06;;;;;;;17.55;9.23;;;10.00;75.40;;;;;;6129022;23;19997;-79
2024/01/20 12:00:32;;;;;;;15.13;9.35;;;9.90;75.40;;;;;;6135328;23;20084;-78
2024/01/20 12:02:59;;;;;;;14.43;8.65;;;10.10;75.50;;;;;;6130127;23;20467;-80
2024/01/20 12:05:26;;;;;;;16.35;9.45;;;9.90;75.40;;;;;;6129855;23;20459;-79
2024/01/20 12:07:52;;;;;;;18.40;8.85;;;9.90;75.60;;;;;;6156070;23;20072;-79
2024/01/20 12:10:18;;;;;;;15.02;8.77;;;9.80;75.50;;;;;;6156192;23;20425;-79
2024/01/20 12:12:44;;;;;;;17.25;8.77;;;9.90;75.60;;;;;;6131476;23;20000;-79
2024/01/20 12:15:12;;;;;;;17.60;9.38;;;10.00;75.60;;;;;;6151524;23;20029;-79
2024/01/20 12:17:40;;;;;;;14.88;9.10;;;9.90;75.50;;;;;;6155977;23;20010;-79
2024/01/20 12:20:07;;;;;;;14.60;8.75;;;9.90;75.40;;;;;;6179156;23;20013;-82
2024/01/20 12:22:33;;;;;;;12.95;8.40;;;9.90;75.40;;;;;;6155572;23;20017;-82
2024/01/20 12:28:53;;;;;;;15.57;8.13;;;10.00;75.30;;;;;;6169930;23;20001;-81
2024/01/20 12:31:19;;;;;;;15.68;8.60;;;10.00;75.20;;;;;;6158944;23;19990;-82
2024/01/20 12:33:51;;;;;;;13.98;8.10;;;10.00;75.20;;;;;;6158140;23;19996;-79
2024/01/20 12:36:17;;;;;;;13.05;8.50;;;10.00;75.30;;;;;;6168225;23;20021;-79
2024/01/20 12:38:45;;;;;;;13.57;8.13;;;9.90;75.30;;;;;;6180274;23;20051;-81
2024/01/20 12:41:13;;;;;;;14.23;7.65;;;9.90;75.40;;;;;;6128924;23;20024;-78
2024/01/20 12:43:39;;;;;;;12.07;7.55;;;10.00;75.60;;;;;;6177763;23;19997;-79
2024/01/20 12:46:12;;;;;;;13.90;8.07;;;9.90;75.50;;;;;;6178275;23;20001;-79
2024/01/20 12:48:38;;;;;;;12.43;7.40;;;9.90;75.80;;;;;;6180279;23;20016;-79
2024/01/20 12:51:05;;;;;;;11.63;7.35;;;10.00;75.70;;;;;;6192518;23;20001;-78
2024/01/20 12:53:33;;;;;;;13.18;7.63;;;9.80;75.60;;;;;;6193957;23;20371;-79
2024/01/20 12:55:59;;;;;;;12.45;7.68;;;9.90;75.80;;;;;;6144532;23;20060;-78
2024/01/20 12:58:30;;;;;;;13.23;7.65;;;9.80;75.90;;;;;;6191449;23;20001;-78
2024/01/20 13:00:57;;;;;;;12.43;7.88;;;9.80;75.90;;;;;;6167742;23;19993;-78
2024/01/20 13:03:25;;;;;;;13.60;7.45;;;10.00;76.10;;;;;;6168129;23;20008;-79
2024/01/20 13:05:54;;;;;;;11.73;7.15;;;9.70;76.00;;;;;;6145439;23;20009;-80
2024/01/20 13:08:20;;;;;;;14.00;8.05;;;9.80;76.10;;;;;;6141497;23;20009;-78
2024/01/20 13:10:49;;;;;;;13.38;7.07;;;9.80;76.10;;;;;;6171732;23;19997;-79